LSGGLFGJ

Guest
Details From LSGG - Geneva
To LFGJ - Dole Tavaux
Flight Number -
Tags generated
Created
Modified
Stats Distance 56 nm / 103 km
Max Altitude 8,000 ft / 2,438 m
Waypoints 4
Social Downloads 2
Likes 0
Share

Download

Looking for another format? Having issues loading an existing format? Contact us
Advertisement - Login to hide

Notes

Basic altitude profile: - Ascent Rate: 2500ft/min - Ascent Speed: 250kts - Cruise Altitude: 35000ft - Cruise Speed: 420kts - Descent Rate: 1500ft/min - Descent Speed: 250kts Options: - Use NATs: yes - Use PACOTS: yes - Use low airways: yes - Use high airways: yes

Route

LSGG DINIG Y55 LIRKO LFGJ

ID Type Via Altitude (ft/m) Position (lat/lon) Dist (leg/tot) Name
O LSGG APT - 0 / 0 46.23775 / 6.10617 - / 0 nm Geneva
DINIG FIX - 6,300 / 1,920 46.49528 / 5.89056 17 / 17 nm
LIRKO FIX Y55 (AWY-LO) 8,000 / 2,438 46.57083 / 5.81417 5 / 23 nm
O LFGJ APT - 0 / 0 47.03893 / 5.42727 32 / 55 nm Dole Tavaux

Altitude Profile

Advertisement - Login to hide

LSGG

Details ICAO LSGG (GVA)
Name Geneva
Region Switzerland
Timezone Europe/Zurich (UTC+2.0)
Stats Elevation 1,411 ft / 430 m (AMSL)
Location 46.238100° 6.109010°
Runways 1
Magnetic Variation 2.149° E

METAR

LSGG 080620Z VRB02KT CAVOK 08/06 Q1020 NOSIG

Decode

TAF

TAF LSGG 080525Z 0806/0912 VRB02KT CAVOK TX21/0815Z TN06/0806Z TN10/0904Z BECMG 0810/0812 21010KT

Decode

Departure Runways

ID Width Length Bearing (true/mag) Surface Threshold Overrun Markings Lighting
04 164 ft / 50 m 12,806 ft / 3,903 m 45.42° / 43.27° CONCRETE 1,076 ft / 328 m 0 ft / 0 m PREC-APP CENTERLINE EDGE THRESHOLD CALVERT TDZ REIL-OMNI
22 164 ft / 50 m 12,806 ft / 3,903 m 225.45° / 223.30° CONCRETE 0 ft / 0 m 0 ft / 0 m PREC-APP CENTERLINE EDGE THRESHOLD CALVERT-ILS TDZ REIL-OMNI

LFGJ

Details ICAO LFGJ (DLE)
Name Dole Tavaux
Region France
Timezone Europe/Paris (UTC+2.0)
Stats Elevation 645 ft / 197 m (AMSL)
Location 47.038900° 5.427260°
Runways 1
Magnetic Variation 1.966° E

METAR

LFGJ 080630Z AUTO VRB02KT CAVOK 08/06 Q1018 BECMG 20012KT

Decode

TAF

Not found

Destination Runways

ID Width Length Bearing (true/mag) Surface Threshold Overrun Markings Lighting
05 148 ft / 45 m 7,306 ft / 2,227 m 54.25° / 52.29° ASPHALT 0 ft / 0 m 0 ft / 0 m PREC-APP EDGE THRESHOLD REIL-OMNI
23 148 ft / 45 m 7,306 ft / 2,227 m 234.27° / 232.30° ASPHALT 0 ft / 0 m 1,214 ft / 370 m PREC-APP EDGE THRESHOLD REIL-OMNI

Approach Navaids

Runway Type Ident Frequency Range Bearing (true/mag) Slope Elevation
05 DME DO 109.35 MHz 18 nm / 33 km - - 690 ft / 210 m (AMSL)
23 GS DO 109.70 MHz 10 nm / 19 km 234.52° / 232.56 ° 3.00° 643 ft / 196 m (AMSL)
23 LOC-ILS DO 109.70 MHz 18 nm / 33 km 234.34° / 232.37 ° - 643 ft / 196 m (AMSL)

Popular Alternatives